createdAt,value
2018-01-30T00:01:18.506Z,0.50
2018-01-30T00:03:46.062Z,0.30
2018-01-30T00:06:13.697Z,0.60
2018-01-30T00:08:41.199Z,0.47
2018-01-30T00:11:08.703Z,0.47
2018-01-30T00:13:36.232Z,0.50
2018-01-30T00:16:03.828Z,0.62
2018-01-30T00:18:31.558Z,0.50
2018-01-30T00:20:59.108Z,0.40
2018-01-30T00:23:26.637Z,0.50
2018-01-30T00:25:54.138Z,0.53
2018-01-30T00:28:21.653Z,0.45
2018-01-30T00:30:49.207Z,1.10
2018-01-30T00:33:16.788Z,0.40
2018-01-30T00:35:44.318Z,0.80
2018-01-30T00:38:11.876Z,1.07
2018-01-30T00:40:39.432Z,0.35
2018-01-30T00:43:06.947Z,0.40
2018-01-30T00:45:34.500Z,0.40
2018-01-30T00:48:02.055Z,0.40
2018-01-30T00:50:29.625Z,0.43
2018-01-30T00:52:57.427Z,0.50
2018-01-30T00:55:24.932Z,0.40
2018-01-30T00:57:52.441Z,0.40
2018-01-30T01:00:19.947Z,0.30
2018-01-30T01:02:47.551Z,0.40
2018-01-30T01:05:15.096Z,0.50
2018-01-30T01:07:42.626Z,0.40
2018-01-30T01:10:10.211Z,0.43
2018-01-30T01:12:37.764Z,0.40
2018-01-30T01:15:05.331Z,0.37
2018-01-30T01:17:32.840Z,0.60
2018-01-30T01:20:00.564Z,0.80
2018-01-30T01:22:28.111Z,0.73
2018-01-30T01:24:55.617Z,2.13
2018-01-30T01:27:23.122Z,0.33
2018-01-30T01:29:50.633Z,4.17
2018-01-30T01:32:18.127Z,0.30
2018-01-30T01:34:45.701Z,0.82
2018-01-30T01:37:13.217Z,0.40
2018-01-30T01:39:40.732Z,0.77
2018-01-30T01:42:08.296Z,0.40
2018-01-30T01:44:35.872Z,0.50
2018-01-30T01:47:03.376Z,0.40
2018-01-30T01:49:32.681Z,0.53
2018-01-30T01:52:00.211Z,0.40
2018-01-30T01:54:27.742Z,0.30
2018-01-30T01:56:55.377Z,0.30
2018-01-30T01:59:22.878Z,0.40
2018-01-30T02:01:50.382Z,0.70
2018-01-30T02:04:17.964Z,0.63
2018-01-30T02:06:45.611Z,0.70
2018-01-30T02:09:13.195Z,0.40
2018-01-30T02:11:40.936Z,0.53
2018-01-30T02:14:08.437Z,2.73
2018-01-30T02:16:35.998Z,0.40
2018-01-30T02:19:03.564Z,0.30
2018-01-30T02:21:31.072Z,0.30
2018-01-30T02:23:59.467Z,0.40
2018-01-30T02:26:27.042Z,0.40
2018-01-30T02:28:54.653Z,0.70
2018-01-30T02:31:22.167Z,0.50
2018-01-30T02:33:49.711Z,0.57
2018-01-30T02:36:17.226Z,0.40
2018-01-30T02:38:44.740Z,0.40
2018-01-30T02:41:12.352Z,0.40
2018-01-30T02:43:39.856Z,0.40
2018-01-30T02:46:07.379Z,0.40
2018-01-30T02:48:34.947Z,1.63
2018-01-30T02:51:02.483Z,0.40
2018-01-30T02:53:30.013Z,0.40
2018-01-30T02:55:57.513Z,0.30
2018-01-30T02:58:25.134Z,0.30
2018-01-30T03:00:52.735Z,0.98
2018-01-30T03:03:20.508Z,0.93
2018-01-30T03:05:49.232Z,0.70
2018-01-30T03:08:16.738Z,0.50
2018-01-30T03:10:44.411Z,0.40
2018-01-30T03:13:12.020Z,0.40
2018-01-30T03:15:39.514Z,0.30
2018-01-30T03:18:07.006Z,1.37
2018-01-30T03:20:34.632Z,0.40
2018-01-30T03:23:02.266Z,0.40
2018-01-30T03:25:29.762Z,1.60
2018-01-30T03:27:57.423Z,0.30
2018-01-30T03:30:25.032Z,0.40
2018-01-30T03:32:52.576Z,1.35
2018-01-30T03:35:20.511Z,0.63
2018-01-30T03:37:48.023Z,0.30
2018-01-30T03:40:15.613Z,1.30
2018-01-30T03:42:43.293Z,0.40
2018-01-30T03:45:10.794Z,5.53
2018-01-30T03:47:38.306Z,0.57
2018-01-30T03:50:05.792Z,0.30
2018-01-30T03:52:33.307Z,0.40
2018-01-30T03:55:00.937Z,5.07
2018-01-30T03:57:28.510Z,1.00
2018-01-30T03:59:55.999Z,1.10
2018-01-30T04:02:23.591Z,0.30
2018-01-30T04:04:51.096Z,0.40
2018-01-30T04:07:18.697Z,0.50
2018-01-30T04:09:46.191Z,0.60
2018-01-30T04:12:13.758Z,0.40
2018-01-30T04:14:41.391Z,0.40
2018-01-30T04:17:08.948Z,0.40
2018-01-30T04:19:36.582Z,0.40
2018-01-30T04:22:04.091Z,0.40
2018-01-30T04:24:31.705Z,0.33
2018-01-30T04:27:00.141Z,0.30
2018-01-30T04:29:27.654Z,0.40
2018-01-30T04:31:55.187Z,0.30
2018-01-30T04:34:22.782Z,0.30
2018-01-30T04:36:50.302Z,0.40
2018-01-30T04:39:17.808Z,0.83
2018-01-30T04:41:45.327Z,0.50
2018-01-30T04:44:12.831Z,0.30
2018-01-30T04:46:40.371Z,0.30
2018-01-30T04:49:07.908Z,0.30
2018-01-30T04:51:35.524Z,0.40
2018-01-30T04:54:03.032Z,0.40
2018-01-30T04:56:30.731Z,0.40
2018-01-30T04:58:58.586Z,0.53
2018-01-30T05:01:26.193Z,0.60
2018-01-30T05:03:53.873Z,0.70
2018-01-30T05:06:21.448Z,0.70
2018-01-30T05:08:49.018Z,0.50
2018-01-30T05:11:16.514Z,0.40
2018-01-30T05:13:44.048Z,0.50
2018-01-30T05:16:11.653Z,0.40
2018-01-30T05:18:39.166Z,0.40
2018-01-30T05:21:06.774Z,0.50
2018-01-30T05:23:34.387Z,1.30
2018-01-30T05:26:01.967Z,1.17
2018-01-30T05:28:29.688Z,1.73
2018-01-30T05:30:57.208Z,2.23
2018-01-30T05:33:24.793Z,2.37
2018-01-30T05:35:52.316Z,3.40
2018-01-30T05:38:19.914Z,2.20
2018-01-30T05:40:48.398Z,3.53
2018-01-30T05:43:16.082Z,54.33
2018-01-30T05:45:43.602Z,5.10
2018-01-30T05:48:11.145Z,1.73
2018-01-30T05:50:38.662Z,1.63
2018-01-30T05:53:06.173Z,1.70
2018-01-30T05:55:33.830Z,1.57
2018-01-30T05:58:01.344Z,1.53
2018-01-30T06:00:28.912Z,1.70
2018-01-30T06:02:56.530Z,0.90
2018-01-30T06:05:24.301Z,1.30
2018-01-30T06:07:51.946Z,1.90
2018-01-30T06:10:19.448Z,1.80
2018-01-30T06:12:46.966Z,34.23
2018-01-30T06:15:14.487Z,2.43
2018-01-30T06:17:42.159Z,1.00
2018-01-30T06:20:09.666Z,2.10
2018-01-30T06:22:37.292Z,0.70
2018-01-30T06:25:04.808Z,0.53
2018-01-30T06:27:32.372Z,1.10
2018-01-30T06:29:59.897Z,0.83
2018-01-30T06:32:27.571Z,1.40
2018-01-30T06:34:55.207Z,0.60
2018-01-30T06:37:22.783Z,0.70
2018-01-30T06:39:50.451Z,0.80
2018-01-30T06:42:17.958Z,15.33
2018-01-30T06:44:45.479Z,0.70
2018-01-30T06:47:13.088Z,1.00
2018-01-30T06:49:40.587Z,0.63
2018-01-30T06:52:08.091Z,4.83
2018-01-30T06:54:35.647Z,0.70
2018-01-30T06:57:03.141Z,0.77
2018-01-30T06:59:30.653Z,0.70
2018-01-30T07:01:58.182Z,1.23
2018-01-30T07:04:25.708Z,3.80
2018-01-30T07:06:53.383Z,5.63
2018-01-30T07:09:21.017Z,9.77
2018-01-30T07:11:48.528Z,6.73
2018-01-30T07:14:16.117Z,4.00
2018-01-30T07:16:43.707Z,0.83
2018-01-30T07:19:11.226Z,0.65
2018-01-30T07:21:38.938Z,6.60
2018-01-30T07:24:06.433Z,1.87
2018-01-30T07:26:33.948Z,0.60
2018-01-30T07:29:01.531Z,0.70
2018-01-30T07:31:29.117Z,1.57
2018-01-30T07:33:56.924Z,11.87
2018-01-30T07:36:24.458Z,0.63
2018-01-30T07:38:52.319Z,0.60
2018-01-30T07:41:19.867Z,1.57
2018-01-30T07:43:47.374Z,1.33
2018-01-30T07:46:14.888Z,0.70
2018-01-30T07:48:42.504Z,0.60
2018-01-30T07:51:10.058Z,0.60
2018-01-30T07:53:37.580Z,0.63
2018-01-30T07:56:05.111Z,0.67
2018-01-30T07:58:32.635Z,0.80
2018-01-30T08:01:00.148Z,8.27
2018-01-30T08:03:27.672Z,3.40
2018-01-30T08:05:55.203Z,1.77
2018-01-30T08:08:22.722Z,3.10
2018-01-30T08:10:50.334Z,8.13
2018-01-30T08:13:17.844Z,1.97
2018-01-30T08:15:45.432Z,8.07
2018-01-30T08:18:12.987Z,5.93
2018-01-30T08:20:40.502Z,6.63
2018-01-30T08:23:08.038Z,5.97
2018-01-30T08:25:35.562Z,7.68
2018-01-30T08:28:03.088Z,8.10
2018-01-30T08:30:30.662Z,7.13
2018-01-30T08:32:58.248Z,8.87
2018-01-30T08:35:25.757Z,8.33
2018-01-30T08:37:53.271Z,8.70
2018-01-30T08:40:20.804Z,8.23
2018-01-30T08:42:48.328Z,11.10
2018-01-30T08:45:15.952Z,8.37
2018-01-30T08:47:43.486Z,20.70
2018-01-30T08:50:11.137Z,18.27
2018-01-30T08:52:38.732Z,36.30
2018-01-30T08:55:06.277Z,14.60
2018-01-30T08:57:33.871Z,9.43
2018-01-30T09:00:01.408Z,8.20
2018-01-30T09:02:29.166Z,10.80
2018-01-30T09:04:56.871Z,12.47
2018-01-30T09:07:24.579Z,13.77
2018-01-30T09:09:52.134Z,10.17
2018-01-30T09:12:19.653Z,9.10
2018-01-30T09:14:47.168Z,26.77
2018-01-30T09:17:14.752Z,15.75
2018-01-30T09:19:42.403Z,13.57
2018-01-30T09:22:09.963Z,11.13
2018-01-30T09:24:37.533Z,15.05
2018-01-30T09:27:05.052Z,15.30
2018-01-30T09:29:32.742Z,14.20
2018-01-30T09:32:00.368Z,14.00
2018-01-30T09:34:28.009Z,13.87
2018-01-30T09:36:55.529Z,13.60
2018-01-30T09:39:23.067Z,15.02
2018-01-30T09:41:50.572Z,18.30
2018-01-30T09:44:18.097Z,13.43
2018-01-30T09:46:45.609Z,14.57
2018-01-30T09:49:13.184Z,15.63
2018-01-30T09:51:40.719Z,12.27
2018-01-30T09:54:08.240Z,12.80
2018-01-30T09:56:35.817Z,12.87
2018-01-30T09:59:03.342Z,12.85
2018-01-30T10:01:30.877Z,12.47
2018-01-30T10:03:58.799Z,11.83
2018-01-30T10:06:26.451Z,13.90
2018-01-30T10:08:54.182Z,11.83
2018-01-30T10:11:21.777Z,11.57
2018-01-30T10:13:49.404Z,12.43
2018-01-30T10:16:16.939Z,10.70
2018-01-30T10:18:44.549Z,8.33
2018-01-30T10:21:12.073Z,8.55
2018-01-30T10:23:39.663Z,10.83
2018-01-30T10:26:07.182Z,7.47
2018-01-30T10:28:34.983Z,6.87
2018-01-30T10:31:02.510Z,5.43
2018-01-30T10:33:30.132Z,5.03
2018-01-30T10:35:57.712Z,5.50
2018-01-30T10:38:25.225Z,5.80
2018-01-30T10:40:52.964Z,6.17
2018-01-30T10:43:20.551Z,5.82
2018-01-30T10:45:48.123Z,5.77
2018-01-30T10:48:15.733Z,6.03
2018-01-30T10:50:43.248Z,5.40
2018-01-30T10:53:10.757Z,5.37
2018-01-30T10:55:38.278Z,5.93
2018-01-30T10:58:05.845Z,6.37
2018-01-30T11:00:33.483Z,6.80
2018-01-30T11:03:01.004Z,7.17
2018-01-30T11:05:28.528Z,7.10
2018-01-30T11:07:56.126Z,6.97
2018-01-30T11:10:23.689Z,7.10
2018-01-30T11:12:51.263Z,7.30
2018-01-30T11:15:18.781Z,7.17
2018-01-30T11:17:46.310Z,7.77
2018-01-30T11:20:13.803Z,5.80
2018-01-30T11:22:41.372Z,4.60
2018-01-30T11:25:08.984Z,6.10
2018-01-30T11:27:36.512Z,5.23
2018-01-30T11:30:04.189Z,5.90
2018-01-30T11:32:31.828Z,5.05
2018-01-30T11:34:59.698Z,5.50
2018-01-30T11:37:27.199Z,5.20
2018-01-30T11:39:54.707Z,4.80
2018-01-30T11:42:22.234Z,4.53
2018-01-30T11:44:49.827Z,3.50
2018-01-30T11:47:17.624Z,4.72
2018-01-30T11:49:45.254Z,3.57
2018-01-30T11:52:13.008Z,3.20
2018-01-30T11:54:40.684Z,4.07
2018-01-30T11:57:08.303Z,4.03
2018-01-30T11:59:35.957Z,3.90
2018-01-30T12:02:03.643Z,4.47
2018-01-30T12:04:31.159Z,4.78
2018-01-30T12:06:58.769Z,4.73
2018-01-30T12:09:26.321Z,5.13
2018-01-30T12:11:53.873Z,4.57
2018-01-30T12:14:21.406Z,5.60
2018-01-30T12:16:48.909Z,5.27
2018-01-30T12:19:16.532Z,6.03
2018-01-30T12:21:44.034Z,5.07
2018-01-30T12:24:11.704Z,5.43
2018-01-30T12:26:39.264Z,6.10
2018-01-30T12:29:07.029Z,7.00
2018-01-30T12:31:34.691Z,5.93
2018-01-30T12:34:02.197Z,6.20
2018-01-30T12:36:29.824Z,5.67
2018-01-30T12:38:57.427Z,5.60
2018-01-30T12:41:25.040Z,5.80
2018-01-30T12:43:52.572Z,7.10
2018-01-30T12:46:20.182Z,7.07
2018-01-30T12:48:48.087Z,6.40
2018-01-30T12:51:15.621Z,6.60
2018-01-30T12:53:43.168Z,8.05
2018-01-30T12:56:10.794Z,7.57
2018-01-30T12:58:38.337Z,7.60
2018-01-30T13:01:05.864Z,6.07
2018-01-30T13:03:33.523Z,6.83
2018-01-30T13:06:01.149Z,8.57
2018-01-30T13:08:28.673Z,17.80
2018-01-30T13:10:56.282Z,12.80
2018-01-30T13:13:24.002Z,6.60
2018-01-30T13:15:51.654Z,4.57
2018-01-30T13:18:19.222Z,5.90
2018-01-30T13:20:46.783Z,6.03
2018-01-30T13:23:14.345Z,5.57
2018-01-30T13:25:42.008Z,4.87
2018-01-30T13:28:09.524Z,4.95
2018-01-30T13:30:37.060Z,4.37
2018-01-30T13:33:04.667Z,6.77
2018-01-30T13:35:32.189Z,4.70
2018-01-30T13:37:59.783Z,7.50
2018-01-30T13:40:27.305Z,6.07
2018-01-30T13:42:55.017Z,5.70
2018-01-30T13:45:22.707Z,6.60
2018-01-30T13:47:50.352Z,4.83
2018-01-30T13:50:18.018Z,4.90
2018-01-30T13:52:45.684Z,6.03
2018-01-30T13:55:13.283Z,3.90
2018-01-30T13:57:40.810Z,4.00
2018-01-30T14:00:08.395Z,3.87
2018-01-30T14:02:35.946Z,5.03
2018-01-30T14:05:03.537Z,5.93
2018-01-30T14:07:31.030Z,4.00
2018-01-30T14:09:58.797Z,3.33
2018-01-30T14:12:26.364Z,4.30
2018-01-30T14:14:53.890Z,3.47
2018-01-30T14:17:21.499Z,3.00
2018-01-30T14:19:49.012Z,2.87
2018-01-30T14:22:16.539Z,3.20
2018-01-30T14:24:44.074Z,3.17
2018-01-30T14:27:11.593Z,4.80
2018-01-30T14:29:39.086Z,4.23
2018-01-30T14:32:07.316Z,3.80
2018-01-30T14:34:34.838Z,5.43
2018-01-30T14:37:02.475Z,6.80
2018-01-30T14:39:30.070Z,6.17
2018-01-30T14:41:57.578Z,5.82
2018-01-30T14:44:25.148Z,5.77
2018-01-30T14:46:52.750Z,5.40
2018-01-30T14:49:20.270Z,45.73
2018-01-30T14:51:47.789Z,6.40
2018-01-30T14:54:15.315Z,7.83
2018-01-30T14:56:42.984Z,7.87
2018-01-30T14:59:10.486Z,6.13
2018-01-30T15:01:38.165Z,7.18
2018-01-30T15:04:05.720Z,30.57
2018-01-30T15:06:33.299Z,17.23
2018-01-30T15:09:00.830Z,37.33
2018-01-30T15:11:28.398Z,31.47
2018-01-30T15:13:55.980Z,66.60
2018-01-30T15:16:23.725Z,18.90
2018-01-30T15:18:51.248Z,26.27
2018-01-30T15:21:18.909Z,14.80
2018-01-30T15:23:46.444Z,16.33
2018-01-30T15:26:13.990Z,60.83
2018-01-30T15:28:41.669Z,10.23
2018-01-30T15:31:09.237Z,19.93
2018-01-30T15:33:36.959Z,18.70
2018-01-30T15:36:04.628Z,17.53
2018-01-30T15:38:32.269Z,14.23
2018-01-30T15:40:59.992Z,17.23
2018-01-30T15:43:27.564Z,16.30
2018-01-30T15:45:55.101Z,34.63
2018-01-30T15:48:22.725Z,17.97
2018-01-30T15:50:50.295Z,17.03
2018-01-30T15:53:17.895Z,23.50
2018-01-30T15:55:45.417Z,16.23
2018-01-30T15:58:13.123Z,13.90
2018-01-30T16:00:40.724Z,12.83
2018-01-30T16:03:08.264Z,11.50
2018-01-30T16:05:35.820Z,11.40
2018-01-30T16:08:03.486Z,12.83
2018-01-30T16:10:31.117Z,10.20
2018-01-30T16:12:58.779Z,12.17
2018-01-30T16:15:26.322Z,11.90
2018-01-30T16:17:53.921Z,12.27
2018-01-30T16:20:21.554Z,13.23
2018-01-30T16:22:49.103Z,11.43
2018-01-30T16:25:16.661Z,10.40
2018-01-30T16:27:44.207Z,11.20
2018-01-30T16:30:11.867Z,10.50
2018-01-30T16:32:39.414Z,11.50
2018-01-30T16:35:06.952Z,12.40
2018-01-30T16:37:34.483Z,12.95
2018-01-30T16:40:01.998Z,11.50
2018-01-30T16:42:29.529Z,11.00
2018-01-30T16:44:57.203Z,9.57
2018-01-30T16:47:24.730Z,11.73
2018-01-30T16:49:52.284Z,10.40
2018-01-30T16:52:19.801Z,10.10
2018-01-30T16:54:47.330Z,10.73
2018-01-30T16:57:14.891Z,11.47
2018-01-30T16:59:42.417Z,12.98
2018-01-30T17:02:10.035Z,10.03
2018-01-30T17:04:37.733Z,11.00
2018-01-30T17:07:05.328Z,10.27
2018-01-30T17:09:32.859Z,8.38
2018-01-30T17:12:00.437Z,9.77
2018-01-30T17:14:28.079Z,10.50
2018-01-30T17:16:55.738Z,10.83
2018-01-30T17:19:23.265Z,9.73
2018-01-30T17:21:50.789Z,9.60
2018-01-30T17:24:18.322Z,13.03
2018-01-30T17:26:45.875Z,14.00
2018-01-30T17:29:13.494Z,13.93
2018-01-30T17:31:41.018Z,14.13
2018-01-30T17:34:08.618Z,12.40
2018-01-30T17:36:36.183Z,12.40
2018-01-30T17:39:03.755Z,14.20
2018-01-30T17:41:31.275Z,13.83
2018-01-30T17:43:59.275Z,13.23
2018-01-30T17:46:27.003Z,12.00
2018-01-30T17:48:54.550Z,57.77
2018-01-30T17:51:22.165Z,14.43
2018-01-30T17:53:49.725Z,12.63
2018-01-30T17:56:17.355Z,13.30
2018-01-30T17:58:44.885Z,12.93
2018-01-30T18:01:12.520Z,12.57
2018-01-30T18:03:40.079Z,12.50
2018-01-30T18:06:07.640Z,16.00
2018-01-30T18:08:35.180Z,12.97
2018-01-30T18:11:02.719Z,13.30
2018-01-30T18:13:30.295Z,13.97
2018-01-30T18:15:57.814Z,14.43
2018-01-30T18:18:25.529Z,13.37
2018-01-30T18:20:53.070Z,14.03
2018-01-30T18:23:20.725Z,12.97
2018-01-30T18:25:48.376Z,13.23
2018-01-30T18:28:16.045Z,15.33
2018-01-30T18:30:43.659Z,18.50
2018-01-30T18:33:11.366Z,18.50
2018-01-30T18:35:38.906Z,16.40
2018-01-30T18:38:06.528Z,24.40
2018-01-30T18:40:34.180Z,28.50
2018-01-30T18:43:01.718Z,29.00
2018-01-30T18:45:29.285Z,20.83
2018-01-30T18:47:56.884Z,22.97
2018-01-30T18:50:24.558Z,20.00
2018-01-30T18:52:52.240Z,17.60
2018-01-30T18:55:19.895Z,15.40
2018-01-30T18:57:47.548Z,17.77
2018-01-30T19:00:15.154Z,27.73
2018-01-30T19:02:42.761Z,31.40
2018-01-30T19:05:10.343Z,44.53
2018-01-30T19:07:37.992Z,16.30
2018-01-30T19:10:05.544Z,19.60
2018-01-30T19:12:33.173Z,17.90
2018-01-30T19:15:00.844Z,17.37
2018-01-30T19:17:28.384Z,16.83
2018-01-30T19:19:55.990Z,21.43
2018-01-30T19:22:23.536Z,18.23
2018-01-30T19:24:51.150Z,16.60
2018-01-30T19:27:18.770Z,21.67
2018-01-30T19:29:46.300Z,16.23
2018-01-30T19:32:13.893Z,19.80
2018-01-30T19:34:41.469Z,18.60
2018-01-30T19:37:09.008Z,28.90
2018-01-30T19:39:36.775Z,22.90
2018-01-30T19:42:04.345Z,18.60
2018-01-30T19:44:31.902Z,23.67
2018-01-30T19:46:59.549Z,19.43
2018-01-30T19:49:27.084Z,20.00
2018-01-30T19:51:54.630Z,19.93
2018-01-30T19:54:22.205Z,19.60
2018-01-30T19:56:49.749Z,27.10
2018-01-30T19:59:17.510Z,22.27
2018-01-30T20:01:45.048Z,21.77
2018-01-30T20:04:12.620Z,19.97
2018-01-30T20:06:40.137Z,24.20
2018-01-30T20:09:07.747Z,26.43
2018-01-30T20:11:35.271Z,24.00
2018-01-30T20:14:02.815Z,17.97
2018-01-30T20:16:30.351Z,18.80
2018-01-30T20:18:57.881Z,18.43
2018-01-30T20:21:25.425Z,19.53
2018-01-30T20:23:52.983Z,15.47
2018-01-30T20:26:21.202Z,18.17
2018-01-30T20:28:48.738Z,20.50
2018-01-30T20:31:16.305Z,18.30
2018-01-30T20:33:43.842Z,18.00
2018-01-30T20:36:11.490Z,19.35
2018-01-30T20:38:39.239Z,17.30
2018-01-30T20:41:06.765Z,21.93
2018-01-30T20:43:34.394Z,25.60
2018-01-30T20:46:02.061Z,19.80
2018-01-30T20:48:29.718Z,19.57
2018-01-30T20:50:57.361Z,14.80
2018-01-30T20:53:24.929Z,21.30
2018-01-30T20:55:52.444Z,25.57
2018-01-30T20:58:19.954Z,17.60
2018-01-30T21:00:47.480Z,21.27
2018-01-30T21:03:15.018Z,17.73
2018-01-30T21:05:42.578Z,16.80
2018-01-30T21:08:10.193Z,22.27
2018-01-30T21:10:37.864Z,20.60
2018-01-30T21:13:05.398Z,28.83
2018-01-30T21:15:32.924Z,32.35
2018-01-30T21:18:00.570Z,33.65
2018-01-30T21:20:28.375Z,28.23
2018-01-30T21:22:55.974Z,24.50
2018-01-30T21:25:23.579Z,17.90
2018-01-30T21:27:51.313Z,22.90
2018-01-30T21:30:18.934Z,18.52
2018-01-30T21:32:46.464Z,18.10
2018-01-30T21:35:14.059Z,27.17
2018-01-30T21:37:41.652Z,31.20
2018-01-30T21:40:10.019Z,29.48
2018-01-30T21:42:37.659Z,27.40
2018-01-30T21:45:05.483Z,22.27
2018-01-30T21:47:33.337Z,20.00
2018-01-30T21:50:00.924Z,22.67
2018-01-30T21:52:28.504Z,19.10
2018-01-30T21:54:56.039Z,21.80
2018-01-30T21:57:23.588Z,20.37
2018-01-30T21:59:51.147Z,22.97
2018-01-30T22:02:18.720Z,19.47
2018-01-30T22:04:46.360Z,17.43
2018-01-30T22:07:14.807Z,17.12
2018-01-30T22:09:42.615Z,18.20
2018-01-30T22:12:10.231Z,18.60
2018-01-30T22:14:37.948Z,17.57
2018-01-30T22:17:05.590Z,16.77
2018-01-30T22:19:33.218Z,17.13
2018-01-30T22:22:00.809Z,19.10
2018-01-30T22:24:28.365Z,21.50
2018-01-30T22:26:56.020Z,18.93
2018-01-30T22:29:23.583Z,21.65
2018-01-30T22:31:51.313Z,18.30
2018-01-30T22:34:18.959Z,17.57
2018-01-30T22:36:46.598Z,20.20
2018-01-30T22:39:14.169Z,17.80
2018-01-30T22:41:41.889Z,16.90
2018-01-30T22:44:09.497Z,21.00
2018-01-30T22:46:37.274Z,15.37
